Time;durP1;ratioP1;P1;durP2;ratioP2;P2;SDS_P1;SDS_P2;PMS_P1;PMS_P2;Temp;Humidity;BMP_temperature;BMP_pressure;BME280_temperature;BME280_humidity;BME280_pressure;Samples;Min_cycle;Max_cycle;Signal;HPM_P1;HPM_P2
2021/05/23 00:01:02;;;;;;;;;;;;;;;22.24;60.89;100675.22;1728258;82;20260;-62
2021/05/23 00:03:28;;;;;;;;;;;;;;;22.23;60.94;100678.59;1736956;81;20675;-61
2021/05/23 00:05:53;;;;;;;;;;;;;;;22.21;60.94;100676.70;1735641;81;20500;-63
2021/05/23 00:08:20;;;;;;;;;;;;;;;22.21;60.97;100673.12;1701024;84;23366;-62
2021/05/23 00:10:49;;;;;;;;;;;;;;;22.18;60.99;100676.56;1712877;82;20284;-62
2021/05/23 00:13:16;;;;;;;;;;;;;;;22.17;61.00;100680.47;1713934;82;20276;-62
2021/05/23 00:15:51;;;;;;;;;;;;;;;22.15;61.00;100681.39;1711841;82;20269;-62
2021/05/23 00:18:18;;;;;;;;;;;;;;;22.15;61.03;100678.62;1730529;81;20296;-61
2021/05/23 00:20:44;;;;;;;;;;;;;;;22.13;61.05;100678.13;1733590;81;21093;-61
2021/05/23 00:23:10;;;;;;;;;;;;;;;22.11;61.06;100683.16;1730529;81;20212;-61
2021/05/23 00:25:37;;;;;;;;;;;;;;;22.11;61.07;100683.16;1734505;81;20615;-60
2021/05/23 00:28:04;;;;;;;;;;;;;;;22.09;61.11;100679.92;1725454;81;20280;-61
2021/05/23 00:30:30;;;;;;;;;;;;;;;22.09;61.13;100678.54;1731166;81;20212;-61
2021/05/23 00:32:57;;;;;;;;;;;;;;;22.07;61.15;100675.27;1727437;81;20253;-61
2021/05/23 00:35:23;;;;;;;;;;;;;;;22.06;61.12;100673.10;1727466;81;21614;-61
2021/05/23 00:37:49;;;;;;;;;;;;;;;22.06;61.17;100671.72;1729339;81;20294;-61
2021/05/23 00:40:15;;;;;;;;;;;;;;;22.05;61.18;100667.87;1741511;81;20276;-61
2021/05/23 00:42:41;;;;;;;;;;;;;;;22.04;61.19;100665.68;1731035;81;20606;-61
2021/05/23 00:45:09;;;;;;;;;;;;;;;22.03;61.21;100658.50;1734409;81;21760;-61
2021/05/23 00:47:35;;;;;;;;;;;;;;;22.02;61.23;100665.21;1741023;81;21084;-61
2021/05/23 00:50:01;;;;;;;;;;;;;;;22.02;61.24;100665.78;1734153;81;20561;-61
2021/05/23 00:52:27;;;;;;;;;;;;;;;22.03;61.22;100665.43;1736245;81;20511;-62
2021/05/23 00:54:53;;;;;;;;;;;;;;;22.06;61.23;100666.74;1743730;81;20237;-61
2021/05/23 00:57:19;;;;;;;;;;;;;;;22.08;61.25;100666.64;1741751;81;21019;-61
2021/05/23 00:59:45;;;;;;;;;;;;;;;22.11;61.28;100667.92;1738478;81;20229;-61
2021/05/23 01:02:41;;;;;;;;;;;;;;;22.14;61.32;100671.44;1738695;81;20241;-61
2021/05/23 01:05:07;;;;;;;;;;;;;;;22.17;61.33;100672.16;1745957;81;20304;-61
2021/05/23 01:07:33;;;;;;;;;;;;;;;22.21;61.34;100678.09;1746653;81;20304;-61
2021/05/23 01:10:05;;;;;;;;;;;;;;;22.25;61.35;100684.59;1737712;81;21694;-61
2021/05/23 01:12:57;;;;;;;;;;;;;;;22.30;61.34;100687.77;1739097;81;20285;-61
2021/05/23 01:15:38;;;;;;;;;;;;;;;22.35;61.31;100693.70;1738876;81;20272;-61
2021/05/23 01:18:15;;;;;;;;;;;;;;;22.38;61.29;100691.64;1719050;81;20585;-61
2021/05/23 01:20:57;;;;;;;;;;;;;;;22.38;61.27;100686.91;1737638;81;20255;-61
2021/05/23 01:23:30;;;;;;;;;;;;;;;22.39;61.19;100692.70;1740625;81;21136;-61
2021/05/23 01:26:06;;;;;;;;;;;;;;;22.41;61.15;100691.78;1744168;81;20316;-61
2021/05/23 01:28:34;;;;;;;;;;;;;;;22.42;61.05;100689.83;1735542;81;20533;-61
2021/05/23 01:31:00;;;;;;;;;;;;;;;22.40;60.99;100686.59;1741306;81;20597;-61
2021/05/23 01:33:26;;;;;;;;;;;;;;;22.39;60.94;100689.93;1738113;81;20202;-61
2021/05/23 01:35:57;;;;;;;;;;;;;;;22.37;60.91;100679.73;1739416;81;21900;-61
2021/05/23 01:38:23;;;;;;;;;;;;;;;22.35;60.87;100679.27;1744744;81;21089;-59
2021/05/23 01:40:49;;;;;;;;;;;;;;;22.33;60.85;100676.00;1733238;81;20237;-61
2021/05/23 01:43:15;;;;;;;;;;;;;;;22.29;60.83;100675.86;1737274;81;20300;-61
2021/05/23 01:45:41;;;;;;;;;;;;;;;;;;1717646;80;20281;-61
2021/05/23 01:48:08;;;;;;;;;;;;;;;22.24;60.80;100667.72;1756898;80;21146;-62
2021/05/23 01:50:34;;;;;;;;;;;;;;;22.23;60.82;100666.69;1763156;80;20168;-61
2021/05/23 01:53:01;;;;;;;;;;;;;;;22.20;60.79;100668.71;1759349;80;20205;-61
2021/05/23 01:55:28;;;;;;;;;;;;;;;22.17;60.81;100668.00;1757056;81;21605;-62
2021/05/23 01:57:54;;;;;;;;;;;;;;;22.15;60.83;100663.38;1756717;80;20209;-61
2021/05/23 02:00:27;;;;;;;;;;;;;;;22.13;60.85;100653.18;1757912;80;21036;-62
2021/05/23 02:02:53;;;;;;;;;;;;;;;22.09;60.83;100657.19;1752478;81;20225;-61
2021/05/23 02:05:19;;;;;;;;;;;;;;;22.08;60.87;100660.28;1760737;80;20482;-61
2021/05/23 02:07:45;;;;;;;;;;;;;;;22.05;60.88;100654.84;1767512;80;20496;-62
2021/05/23 02:10:13;;;;;;;;;;;;;;;22.02;60.91;100656.90;1755863;80;20206;-61
2021/05/23 02:12:39;;;;;;;;;;;;;;;22.01;60.93;100659.42;1757076;80;21026;-62
2021/05/23 02:15:07;;;;;;;;;;;;;;;21.99;60.92;100664.47;1755454;80;20504;-61
2021/05/23 02:17:39;;;;;;;;;;;;;;;21.97;60.95;100665.38;1763980;80;20538;-61
2021/05/23 02:20:06;;;;;;;;;;;;;;;21.96;60.96;100669.29;1761425;80;20516;-61
2021/05/23 02:22:39;;;;;;;;;;;;;;;21.94;60.96;100663.84;1758789;80;20653;-61
2021/05/23 02:25:06;;;;;;;;;;;;;;;21.92;61.01;100662.78;1756699;80;21099;-61
2021/05/23 02:27:43;;;;;;;;;;;;;;;21.92;61.01;100670.24;1767475;80;20555;-61
2021/05/23 02:30:12;;;;;;;;;;;;;;;21.91;61.01;100675.53;1754980;81;20259;-61
2021/05/23 02:32:38;;;;;;;;;;;;;;;21.88;61.02;100669.53;1755232;81;20466;-61
2021/05/23 02:35:05;;;;;;;;;;;;;;;21.88;61.03;100672.86;1760341;80;20264;-61
2021/05/23 02:37:31;;;;;;;;;;;;;;;21.85;61.04;100664.63;1752992;80;21097;-61
2021/05/23 02:39:57;;;;;;;;;;;;;;;21.85;61.06;100669.38;1764107;80;20255;-61
2021/05/23 02:42:23;;;;;;;;;;;;;;;21.84;61.07;100674.66;1764399;80;20700;-61
2021/05/23 02:44:49;;;;;;;;;;;;;;;21.82;61.08;100670.83;1758943;80;20358;-61
2021/05/23 02:47:15;;;;;;;;;;;;;;;21.81;61.09;100664.26;1770324;79;20221;-61
2021/05/23 02:49:42;;;;;;;;;;;;;;;21.81;61.11;100670.58;1772138;79;21767;-61
2021/05/23 02:52:10;;;;;;;;;;;;;;;21.80;61.12;100665.39;1771163;79;20213;-61
2021/05/23 02:54:37;;;;;;;;;;;;;;;21.80;61.11;100665.39;1770298;79;20175;-61
2021/05/23 02:57:04;;;;;;;;;;;;;;;21.79;61.12;100665.95;1773110;79;20238;-61
2021/05/23 02:59:30;;;;;;;;;;;;;;;21.78;61.12;100660.17;1776703;79;20651;-61
2021/05/23 03:01:56;;;;;;;;;;;;;;;21.77;61.13;100662.69;1771590;79;20984;-61
2021/05/23 03:04:22;;;;;;;;;;;;;;;21.77;61.14;100664.08;1746551;81;20182;-61
2021/05/23 03:06:48;;;;;;;;;;;;;;;21.76;61.14;100662.47;1733938;82;20224;-62
2021/05/23 03:09:14;;;;;;;;;;;;;;;21.76;61.15;100669.96;1743266;81;20340;-61
2021/05/23 03:11:41;;;;;;;;;;;;;;;21.75;61.16;100670.53;1738510;82;20242;-61
2021/05/23 03:14:07;;;;;;;;;;;;;;;21.75;61.16;100679.41;1733777;82;20360;-61
2021/05/23 03:16:33;;;;;;;;;;;;;;;21.74;61.17;100677.20;1771761;79;20547;-61
2021/05/23 03:18:59;;;;;;;;;;;;;;;21.74;61.17;100688.28;1772627;79;20539;-61
2021/05/23 03:21:25;;;;;;;;;;;;;;;21.75;61.17;100689.91;1774589;79;20658;-61
2021/05/23 03:23:51;;;;;;;;;;;;;;;21.78;61.14;100689.81;1773143;79;20230;-61
2021/05/23 03:26:17;;;;;;;;;;;;;;;21.80;61.14;100691.70;1772859;79;21161;-61
2021/05/23 03:28:43;;;;;;;;;;;;;;;21.82;61.18;100692.17;1770731;79;20211;-61
2021/05/23 03:31:09;;;;;;;;;;;;;;;21.86;61.21;100697.29;1769379;79;20176;-61
2021/05/23 03:33:35;;;;;;;;;;;;;;;21.91;61.22;100701.84;1776900;79;20160;-61
2021/05/23 03:36:01;;;;;;;;;;;;;;;21.93;61.24;100694.07;1767572;79;20895;-61
2021/05/23 03:38:27;;;;;;;;;;;;;;;21.99;61.25;100695.50;1755887;80;21400;-61
2021/05/23 03:40:52;;;;;;;;;;;;;;;22.03;61.23;100692.31;1729899;82;20212;-61
2021/05/23 03:43:18;;;;;;;;;;;;;;;22.07;61.20;100698.83;1725098;82;20200;-61
2021/05/23 03:45:44;;;;;;;;;;;;;;;22.10;61.19;100693.46;1765675;80;20180;-61
2021/05/23 03:48:11;;;;;;;;;;;;;;;22.13;61.15;100694.74;1750247;81;20240;-61
2021/05/23 03:50:36;;;;;;;;;;;;;;;22.15;61.12;100689.70;1753770;81;21182;-61
2021/05/23 03:53:04;;;;;;;;;;;;;;;22.16;61.06;100697.66;1727419;82;20214;-61
2021/05/23 03:55:30;;;;;;;;;;;;;;;22.17;61.00;100694.33;1724048;81;20264;-61
2021/05/23 03:57:56;;;;;;;;;;;;;;;22.18;60.92;100697.34;1720278;82;20221;-61
2021/05/23 04:00:22;;;;;;;;;;;;;;;22.16;60.87;100702.39;1749653;80;20595;-61
2021/05/23 04:02:52;;;;;;;;;;;;;;;22.14;60.83;100699.97;1747070;80;20978;-61
2021/05/23 04:05:16;;;;;;;;;;;;;;;22.13;60.78;100703.05;1721821;82;20221;-61
2021/05/23 04:07:42;;;;;;;;;;;;;;;22.11;60.74;100703.94;1728539;81;20575;-61
2021/05/23 04:10:09;;;;;;;;;;;;;;;22.08;60.73;100704.05;1723252;82;20781;-61
2021/05/23 04:12:40;;;;;;;;;;;;;;;22.06;60.71;100703.58;1728629;82;20568;-61
2021/05/23 04:15:05;;;;;;;;;;;;;;;22.04;60.69;100698.11;1725642;82;21118;-61
2021/05/23 04:17:31;;;;;;;;;;;;;;;22.01;60.68;100703.75;1771044;79;21170;-61
2021/05/23 04:19:57;;;;;;;;;;;;;;;21.98;60.67;100700.23;1772262;79;20164;-61
2021/05/23 04:22:23;;;;;;;;;;;;;;;21.95;60.70;100702.28;1772734;79;20288;-62
2021/05/23 04:24:48;;;;;;;;;;;;;;;21.93;60.71;100703.77;1770668;79;20698;-61
2021/05/23 04:27:14;;;;;;;;;;;;;;;21.90;60.71;100703.80;1768502;79;20228;-61
2021/05/23 04:29:40;;;;;;;;;;;;;;;21.88;60.72;100704.72;1769470;79;20763;-61
2021/05/23 04:32:06;;;;;;;;;;;;;;;21.87;60.73;100707.23;1769433;79;20224;-61
2021/05/23 04:34:36;;;;;;;;;;;;;;;21.85;60.74;100715.08;1773079;79;20163;-61
2021/05/23 04:37:03;;;;;;;;;;;;;;;21.83;60.75;100724.27;1770116;79;20497;-61
2021/05/23 04:39:29;;;;;;;;;;;;;;;21.81;60.78;100727.95;1770503;79;21035;-61
2021/05/23 04:41:55;;;;;;;;;;;;;;;21.79;60.77;100732.98;1771958;79;20270;-62
2021/05/23 04:44:20;;;;;;;;;;;;;;;21.77;60.77;100730.54;1772447;79;20324;-61
2021/05/23 04:46:46;;;;;;;;;;;;;;;21.77;60.78;100736.08;1770397;79;20639;-62
2021/05/23 04:49:12;;;;;;;;;;;;;;;21.75;60.80;100740.33;1736098;81;20204;-61
2021/05/23 04:51:38;;;;;;;;;;;;;;;21.74;60.80;100742.28;1733428;81;21004;-61
2021/05/23 04:54:05;;;;;;;;;;;;;;;21.73;60.80;100743.41;1729280;81;20225;-61
2021/05/23 04:56:31;;;;;;;;;;;;;;;21.72;60.82;100742.37;1730421;81;20455;-61
2021/05/23 04:58:58;;;;;;;;;;;;;;;21.71;60.83;100747.66;1736777;81;20754;-65
2021/05/23 05:01:23;;;;;;;;;;;;;;;21.70;60.83;100748.23;1742400;81;20316;-61
2021/05/23 05:03:49;;;;;;;;;;;;;;;21.69;60.85;100752.13;1691711;84;23265;-61
2021/05/23 05:06:15;;;;;;;;;;;;;;;21.69;60.85;100759.62;1734002;81;20268;-61
2021/05/23 05:08:41;;;;;;;;;;;;;;;21.68;60.84;100762.98;1737530;81;20276;-61
2021/05/23 05:11:07;;;;;;;;;;;;;;;21.67;60.87;100754.98;1736489;81;20431;-60
2021/05/23 05:13:33;;;;;;;;;;;;;;;21.67;60.85;100755.81;1711001;83;20197;-61
2021/05/23 05:15:59;;;;;;;;;;;;;;;21.66;60.86;100750.59;1688187;84;23170;-61
2021/05/23 05:18:25;;;;;;;;;;;;;;;21.67;60.87;100763.30;1738347;81;20288;-61
2021/05/23 05:20:53;;;;;;;;;;;;;;;21.66;60.87;100775.51;1723943;82;20207;-61
2021/05/23 05:23:19;;;;;;;;;;;;;;;21.65;60.88;100773.30;1695427;84;20269;-61
2021/05/23 05:25:45;;;;;;;;;;;;;;;21.65;60.88;100776.07;1733667;81;20299;-61
2021/05/23 05:28:11;;;;;;;;;;;;;;;21.64;60.88;100781.36;1697824;84;21093;-61
2021/05/23 05:30:36;;;;;;;;;;;;;;;21.64;60.89;100781.36;1731040;82;20226;-61
2021/05/23 05:33:03;;;;;;;;;;;;;;;21.64;60.89;100779.19;1698030;84;20688;-61
2021/05/23 05:35:28;;;;;;;;;;;;;;;21.64;60.89;100783.34;1731068;81;20530;-60
2021/05/23 05:37:54;;;;;;;;;;;;;;;21.64;60.88;100795.80;1739589;81;20339;-61
2021/05/23 05:40:21;;;;;;;;;;;;;;;21.64;60.88;100802.13;1736136;81;21055;-61
2021/05/23 05:42:47;;;;;;;;;;;;;;;21.64;60.88;100813.80;1733878;81;20347;-61
2021/05/23 05:45:14;;;;;;;;;;;;;;;21.64;60.89;100815.18;1727037;81;20259;-61
2021/05/23 05:47:40;;;;;;;;;;;;;;;21.65;60.88;100817.60;1742319;80;20573;-61
2021/05/23 05:50:07;;;;;;;;;;;;;;;21.65;60.87;100820.37;1770853;79;20540;-61
2021/05/23 05:52:33;;;;;;;;;;;;;;;21.65;60.87;100809.86;1770130;80;21792;-61
2021/05/23 05:54:59;;;;;;;;;;;;;;;21.65;60.86;100814.83;1772968;80;20209;-61
2021/05/23 05:57:24;;;;;;;;;;;;;;;21.65;60.87;100816.78;1773422;79;20202;-61
2021/05/23 05:59:50;;;;;;;;;;;;;;;21.65;60.84;100812.06;1770570;79;20189;-61
2021/05/23 06:02:16;;;;;;;;;;;;;;;21.65;60.84;100811.25;1770468;79;20751;-61
2021/05/23 06:04:42;;;;;;;;;;;;;;;21.65;60.84;100816.78;1772457;79;21001;-61
2021/05/23 06:07:08;;;;;;;;;;;;;;;21.64;60.85;100813.20;1771757;79;20552;-61
2021/05/23 06:09:34;;;;;;;;;;;;;;;21.65;60.82;100814.02;1770593;80;20347;-61
2021/05/23 06:12:00;;;;;;;;;;;;;;;21.65;60.83;100818.17;1774385;79;20353;-61
2021/05/23 06:14:26;;;;;;;;;;;;;;;21.67;60.80;100807.59;1773016;79;20215;-62
2021/05/23 06:16:52;;;;;;;;;;;;;;;21.70;60.77;100813.86;1771778;79;21029;-61
2021/05/23 06:19:18;;;;;;;;;;;;;;;21.73;60.80;100814.59;1777851;79;20213;-61
2021/05/23 06:21:44;;;;;;;;;;;;;;;21.76;60.81;100819.50;1774891;79;20791;-61
2021/05/23 06:24:10;;;;;;;;;;;;;;;21.79;60.83;100827.15;1774387;79;20370;-61
2021/05/23 06:26:36;;;;;;;;;;;;;;;21.82;60.83;100822.34;1774482;79;20253;-62
2021/05/23 06:29:03;;;;;;;;;;;;;;;21.86;60.86;100836.59;1774364;79;20977;-61
2021/05/23 06:31:29;;;;;;;;;;;;;;;21.91;60.85;100834.80;1770871;79;20604;-61
2021/05/23 06:33:56;;;;;;;;;;;;;;;21.94;60.85;100839.15;1776301;79;20233;-61
2021/05/23 06:36:23;;;;;;;;;;;;;;;21.98;60.82;100839.34;1772353;79;20313;-62
2021/05/23 06:38:50;;;;;;;;;;;;;;;22.02;60.79;100847.23;1774882;79;20175;-61
2021/05/23 06:41:15;;;;;;;;;;;;;;;22.05;60.80;100850.73;1776206;79;21114;-61
2021/05/23 06:43:41;;;;;;;;;;;;;;;22.07;60.75;100848.44;1772849;79;20216;-61
2021/05/23 06:46:07;;;;;;;;;;;;;;;22.08;60.71;100848.13;1771530;79;20311;-61
2021/05/23 06:48:33;;;;;;;;;;;;;;;22.09;60.65;100844.22;1761940;80;20243;-61
2021/05/23 06:51:00;;;;;;;;;;;;;;;22.11;60.63;100845.25;1765819;80;20694;-61
2021/05/23 06:53:26;;;;;;;;;;;;;;;22.12;60.56;100835.80;1762547;80;21605;-61
2021/05/23 06:55:52;;;;;;;;;;;;;;;22.12;60.49;100839.96;1730382;82;20190;-62
2021/05/23 06:58:18;;;;;;;;;;;;;;;22.13;60.44;100834.67;1728127;82;20437;-61
2021/05/23 07:00:44;;;;;;;;;;;;;;;22.13;60.37;100829.13;1748736;81;20732;-62
2021/05/23 07:03:11;;;;;;;;;;;;;;;22.12;60.32;100832.47;1754782;81;20246;-61
2021/05/23 07:05:37;;;;;;;;;;;;;;;22.11;60.30;100830.02;1751282;80;21037;-61
2021/05/23 07:08:05;;;;;;;;;;;;;;;22.10;60.26;100827.02;1736635;82;20464;-61
2021/05/23 07:10:31;;;;;;;;;;;;;;;22.08;60.21;100822.36;1718198;82;20250;-61
2021/05/23 07:12:57;;;;;;;;;;;;;;;22.06;60.23;100828.25;1771093;79;20274;-61
2021/05/23 07:15:23;;;;;;;;;;;;;;;22.06;60.22;100820.52;1746909;80;20211;-61
2021/05/23 07:17:52;;;;;;;;;;;;;;;22.03;60.21;100815.60;1773426;79;21778;-61
2021/05/23 07:20:17;;;;;;;;;;;;;;;22.01;60.19;100812.36;1772401;79;20468;-62
2021/05/23 07:22:43;;;;;;;;;;;;;;;22.00;60.18;100809.34;1775112;79;20804;-62
2021/05/23 07:25:11;;;;;;;;;;;;;;;21.98;60.18;100813.02;1774621;79;20523;-61
2021/05/23 07:27:36;;;;;;;;;;;;;;;21.96;60.19;100807.80;1775896;79;20556;-61
2021/05/23 07:30:03;;;;;;;;;;;;;;;21.94;60.18;100808.67;1771904;79;21738;-61
2021/05/23 07:32:29;;;;;;;;;;;;;;;21.92;60.19;100809.59;1775306;79;20551;-61
2021/05/23 07:34:55;;;;;;;;;;;;;;;21.90;60.19;100810.44;1770126;79;20819;-62
2021/05/23 07:37:21;;;;;;;;;;;;;;;21.90;60.20;100815.19;1761937;81;20515;-61
2021/05/23 07:39:47;;;;;;;;;;;;;;;21.88;60.22;100821.86;1761806;80;20194;-61
2021/05/23 07:42:13;;;;;;;;;;;;;;;21.87;60.24;100829.92;1764693;80;21079;-61
2021/05/23 07:44:38;;;;;;;;;;;;;;;21.86;60.24;100846.29;1761860;80;20256;-62
2021/05/23 07:47:04;;;;;;;;;;;;;;;21.85;60.24;100846.04;1773450;79;20250;-62
2021/05/23 07:49:30;;;;;;;;;;;;;;;21.84;60.25;100847.20;1773444;79;21006;-61
2021/05/23 07:51:56;;;;;;;;;;;;;;;21.83;60.25;100841.41;1774456;79;20564;-61
2021/05/23 07:54:22;;;;;;;;;;;;;;;21.83;60.27;100838.64;1773030;79;20646;-61
2021/05/23 07:56:48;;;;;;;;;;;;;;;21.83;60.26;100838.64;1771146;79;20247;-61
2021/05/23 07:59:14;;;;;;;;;;;;;;;21.82;60.28;100838.39;1771918;79;20202;-61
2021/05/23 08:01:40;;;;;;;;;;;;;;;21.82;60.27;100840.34;1709919;80;20218;-62
2021/05/23 08:04:06;;;;;;;;;;;;;;;21.80;60.27;100839.30;1771308;79;20921;-61
2021/05/23 08:06:33;;;;;;;;;;;;;;;21.79;60.28;100833.51;1772618;79;20697;-61
2021/05/23 08:08:59;;;;;;;;;;;;;;;21.80;60.30;100839.87;1773939;79;20278;-61
2021/05/23 08:11:25;;;;;;;;;;;;;;;21.78;60.31;100831.88;1768557;80;20316;-61
2021/05/23 08:13:51;;;;;;;;;;;;;;;21.78;60.31;100836.02;1771550;79;20625;-61
2021/05/23 08:16:16;;;;;;;;;;;;;;;21.78;60.34;100827.72;1774038;79;20170;-62
2021/05/23 08:18:42;;;;;;;;;;;;;;;21.77;60.32;100825.26;1771016;79;21153;-62
2021/05/23 08:21:08;;;;;;;;;;;;;;;21.77;60.31;100816.95;1772526;79;20262;-62
2021/05/23 08:23:36;;;;;;;;;;;;;;;21.78;60.33;100818.02;1767924;80;20287;-62
2021/05/23 08:26:02;;;;;;;;;;;;;;;21.77;60.34;100815.00;1768727;79;20616;-62
2021/05/23 08:28:33;;;;;;;;;;;;;;;21.77;60.35;100819.16;1765826;79;20282;-62
2021/05/23 08:31:00;;;;;;;;;;;;;;;21.78;60.35;100826.89;1766893;79;21071;-62
2021/05/23 08:33:26;;;;;;;;;;;;;;;21.77;60.34;100827.47;1770705;79;21669;-61
2021/05/23 08:35:52;;;;;;;;;;;;;;;21.76;60.33;100824.47;1770980;79;20191;-61
2021/05/23 08:38:17;;;;;;;;;;;;;;;21.76;60.35;100823.09;1772893;79;20188;-60
2021/05/23 08:40:43;;;;;;;;;;;;;;;21.76;60.33;100823.09;1772847;79;20808;-61
2021/05/23 08:43:10;;;;;;;;;;;;;;;21.77;60.36;100828.03;1762054;79;21732;-61
2021/05/23 08:45:37;;;;;;;;;;;;;;;21.76;60.36;100824.47;1774220;79;20523;-62
2021/05/23 08:48:03;;;;;;;;;;;;;;;21.77;60.36;100822.48;1775278;79;20266;-61
2021/05/23 08:50:29;;;;;;;;;;;;;;;21.77;60.36;100823.87;1772247;80;20220;-61
2021/05/23 08:52:57;;;;;;;;;;;;;;;21.77;60.36;100819.72;1772202;79;20271;-60
2021/05/23 08:55:23;;;;;;;;;;;;;;;21.77;60.35;100819.16;1764426;80;21059;-61
2021/05/23 08:57:50;;;;;;;;;;;;;;;21.77;60.35;100812.80;1767106;79;37601;-61
2021/05/23 09:00:17;;;;;;;;;;;;;;;21.78;60.36;100814.44;1763158;79;20252;-60
2021/05/23 09:03:00;;;;;;;;;;;;;;;21.78;60.35;100811.10;1768141;79;20250;-62
2021/05/23 09:05:29;;;;;;;;;;;;;;;21.80;60.35;100813.55;1748056;80;20518;-60
2021/05/23 09:07:55;;;;;;;;;;;;;;;21.81;60.35;100809.05;1744995;80;21022;-60
2021/05/23 09:10:25;;;;;;;;;;;;;;;21.83;60.34;100815.66;1750204;80;20147;-60
2021/05/23 09:12:51;;;;;;;;;;;;;;;21.84;60.31;100808.42;1758005;80;20687;-61
2021/05/23 09:15:17;;;;;;;;;;;;;;;21.86;60.31;100806.70;1763428;79;20588;-60
2021/05/23 09:17:43;;;;;;;;;;;;;;;21.88;60.29;100809.41;1758238;79;20212;-60
2021/05/23 09:20:18;;;;;;;;;;;;;;;21.91;60.25;100806.53;1762834;80;21271;-61
2021/05/23 09:22:50;;;;;;;;;;;;;;;21.95;60.29;100809.50;1766744;79;21663;-61
2021/05/23 09:25:13;;;;;;;;;;;;;;;22.02;60.32;100810.66;1761851;79;20763;-61
2021/05/23 09:27:42;;;;;;;;;;;;;;;22.07;60.33;100809.64;1758280;79;20605;-60
2021/05/23 09:30:18;;;;;;;;;;;;;;;22.12;60.33;100808.09;1753424;80;20216;-60
2021/05/23 09:32:42;;;;;;;;;;;;;;;22.18;60.32;100803.46;1766983;79;21058;-60
2021/05/23 09:35:09;;;;;;;;;;;;;;;22.23;60.33;100801.91;1763738;79;20266;-60
2021/05/23 09:37:35;;;;;;;;;;;;;;;22.29;60.30;100796.42;1756229;80;20678;-60
2021/05/23 09:40:02;;;;;;;;;;;;;;;22.36;60.25;100793.16;1765969;79;20155;-61
2021/05/23 09:42:28;;;;;;;;;;;;;;;22.41;60.21;100789.37;1766283;80;20266;-60
2021/05/23 09:44:58;;;;;;;;;;;;;;;22.47;60.21;100797.20;1759801;80;21123;-60
2021/05/23 09:47:24;;;;;;;;;;;;;;;22.51;60.14;100789.03;1758311;80;20493;-60
2021/05/23 09:49:54;;;;;;;;;;;;;;;22.55;60.04;100783.06;1744023;80;20180;-60
2021/05/23 09:52:19;;;;;;;;;;;;;;;22.58;59.93;100795.69;1742018;80;20266;-61
2021/05/23 09:54:47;;;;;;;;;;;;;;;22.59;59.84;100787.62;1732114;80;20724;-61
2021/05/23 09:57:15;;;;;;;;;;;;;;;22.61;59.74;100791.45;1759315;80;21132;-61
2021/05/23 09:59:40;;;;;;;;;;;;;;;22.62;59.69;100796.66;1756381;80;20515;-60
2021/05/23 10:02:07;;;;;;;;;;;;;;;22.63;59.60;100797.47;1752576;80;20267;-61
2021/05/23 10:04:34;;;;;;;;;;;;;;;22.63;59.54;100796.08;1754254;80;20280;-61
2021/05/23 10:07:05;;;;;;;;;;;;;;;22.62;59.47;100805.54;1758088;80;20581;-60
2021/05/23 10:09:31;;;;;;;;;;;;;;;22.60;59.43;100796.19;1758262;80;21172;-60
2021/05/23 10:11:57;;;;;;;;;;;;;;;22.57;59.39;100798.23;1752384;80;20274;-60
2021/05/23 10:14:24;;;;;;;;;;;;;;;22.58;59.37;100794.30;1759988;80;20810;-61
2021/05/23 10:16:51;;;;;;;;;;;;;;;22.57;59.34;100803.79;1756803;80;21705;-61
2021/05/23 10:19:18;;;;;;;;;;;;;;;22.57;59.32;100803.79;1760178;80;20245;-61
2021/05/23 10:21:47;;;;;;;;;;;;;;;22.59;59.28;100804.83;1759898;80;20525;-61
2021/05/23 10:24:13;;;;;;;;;;;;;;;22.59;59.26;100796.50;1758776;80;20253;-60
2021/05/23 10:26:39;;;;;;;;;;;;;;;22.57;59.23;100792.70;1758056;80;21296;-61
2021/05/23 10:29:05;;;;;;;;;;;;;;;22.57;59.20;100787.72;1752697;80;20538;-61
2021/05/23 10:31:35;;;;;;;;;;;;;;;22.57;59.19;100781.61;1741466;80;20269;-60
2021/05/23 10:34:02;;;;;;;;;;;;;;;22.57;59.18;100785.77;1757741;80;22590;-61
2021/05/23 10:36:29;;;;;;;;;;;;;;;22.58;59.15;100783.20;1758618;80;20255;-61
2021/05/23 10:38:56;;;;;;;;;;;;;;;22.59;59.11;100782.07;1758202;80;20544;-61
2021/05/23 10:41:22;;;;;;;;;;;;;;;22.63;59.08;100782.22;1759977;80;20214;-61
2021/05/23 10:44:00;;;;;;;;;;;;;;;22.64;59.05;100785.23;1760956;80;20278;-61
2021/05/23 10:46:26;;;;;;;;;;;;;;;22.65;59.00;100784.09;1757816;80;21036;-61
2021/05/23 10:48:57;;;;;;;;;;;;;;;22.66;58.96;100787.91;1758024;80;20200;-61
2021/05/23 10:51:23;;;;;;;;;;;;;;;22.66;58.94;100787.91;1735127;81;20228;-61
2021/05/23 10:53:49;;;;;;;;;;;;;;;22.68;58.90;100786.20;1731795;81;20180;-61
2021/05/23 10:56:30;;;;;;;;;;;;;;;22.68;58.87;100784.24;1735896;81;20297;-60
2021/05/23 10:59:00;;;;;;;;;;;;;;;22.69;58.83;100779.55;1739431;81;21008;-60
2021/05/23 11:01:45;;;;;;;;;;;;;;;22.71;58.83;100776.67;1728211;81;20304;-60
2021/05/23 11:04:15;;;;;;;;;;;;;;;22.72;58.79;100775.53;1733830;81;20270;-60
2021/05/23 11:06:42;;;;;;;;;;;;;;;22.73;58.77;100769.41;1733247;81;20221;-61
2021/05/23 11:09:12;;;;;;;;;;;;;;;22.75;58.76;100779.59;1735949;81;20217;-61
2021/05/23 11:11:38;;;;;;;;;;;;;;;22.75;58.73;100766.53;1717184;82;21132;-61
2021/05/23 11:14:21;;;;;;;;;;;;;;;22.76;58.73;100765.97;1740486;81;20341;-61
2021/05/23 11:16:55;;;;;;;;;;;;;;;22.78;58.68;100765.64;1724072;82;20252;-61
2021/05/23 11:19:22;;;;;;;;;;;;;;;22.79;58.68;100762.52;1695738;84;20313;-61
2021/05/23 11:21:50;;;;;;;;;;;;;;;22.81;58.66;100767.17;1727687;82;20538;-60
2021/05/23 11:24:16;;;;;;;;;;;;;;;22.82;58.65;100759.67;1700420;83;21059;-61
2021/05/23 11:26:42;;;;;;;;;;;;;;;22.84;58.63;100766.50;1726011;82;20239;-61
2021/05/23 11:29:09;;;;;;;;;;;;;;;22.85;58.62;100763.97;1738949;81;21105;-61
2021/05/23 11:31:36;;;;;;;;;;;;;;;22.88;58.60;100771.62;1723337;82;20159;-61
2021/05/23 11:34:04;;;;;;;;;;;;;;;22.89;58.57;100767.70;1731923;81;20418;-61
2021/05/23 11:36:33;;;;;;;;;;;;;;;22.91;58.55;100763.22;1737810;81;21657;-61
2021/05/23 11:39:00;;;;;;;;;;;;;;;22.91;58.52;100758.48;1732678;81;20268;-61
2021/05/23 11:41:33;;;;;;;;;;;;;;;22.94;58.50;100756.42;1731322;81;20233;-61
2021/05/23 11:44:00;;;;;;;;;;;;;;;22.97;58.50;100756.31;1728982;81;20675;-61
2021/05/23 11:46:27;;;;;;;;;;;;;;;22.98;58.46;100741.30;1731496;81;20241;-62
2021/05/23 11:48:54;;;;;;;;;;;;;;;23.01;58.42;100742.01;1740792;81;21133;-61
2021/05/23 11:51:24;;;;;;;;;;;;;;;23.02;58.40;100733.36;1776064;79;20210;-62
2021/05/23 11:53:58;;;;;;;;;;;;;;;23.06;58.39;100736.27;1744536;80;20238;-61
2021/05/23 11:56:25;;;;;;;;;;;;;;;23.07;58.38;100730.97;1773823;79;21830;-61
2021/05/23 11:58:54;;;;;;;;;;;;;;;23.09;58.34;100736.98;1778298;79;20350;-61
2021/05/23 12:01:31;;;;;;;;;;;;;;;23.10;58.32;100728.33;1771281;79;21059;-61
2021/05/23 12:04:08;;;;;;;;;;;;;;;23.12;58.29;100720.49;1775451;79;20272;-62
2021/05/23 12:06:38;;;;;;;;;;;;;;;23.15;58.26;100721.20;1771772;79;20244;-63
2021/05/23 12:09:15;;;;;;;;;;;;;;;23.17;58.23;100722.23;1776621;79;20279;-62
2021/05/23 12:11:51;;;;;;;;;;;;;;;23.18;58.21;100718.31;1754859;79;20228;-62
2021/05/23 12:14:27;;;;;;;;;;;;;;;23.21;58.19;100714.88;1772631;79;21197;-62
2021/05/23 12:17:17;;;;;;;;;;;;;;;23.23;58.15;100702.28;1771734;79;20198;-62
2021/05/23 12:19:57;;;;;;;;;;;;;;;23.27;58.13;100702.98;1771026;79;20295;-62
2021/05/23 12:22:30;;;;;;;;;;;;;;;23.28;58.10;100703.23;1769126;79;20211;-62
2021/05/23 12:24:58;;;;;;;;;;;;;;;23.30;58.06;100696.78;1748427;79;20670;-62
2021/05/23 12:27:29;;;;;;;;;;;;;;;23.31;58.04;100695.03;1777080;79;21101;-62
2021/05/23 12:30:19;;;;;;;;;;;;;;;23.33;58.03;100690.54;1771060;79;20232;-62
2021/05/23 12:32:53;;;;;;;;;;;;;;;23.36;58.01;100691.23;1769379;79;20184;-62
2021/05/23 12:35:23;;;;;;;;;;;;;;;23.38;57.98;100683.40;1769500;79;20922;-62
2021/05/23 12:37:54;;;;;;;;;;;;;;;23.40;57.96;100677.73;1771518;79;20296;-62
2021/05/23 12:40:24;;;;;;;;;;;;;;;23.42;57.95;100682.95;1771674;79;21114;-62